Ana Sayfa
METAR-TAF:

METAR-TAF

Havaalanları :

Cluj-Napoca, Romanya

Enlem: 46-47N, Boylam: 023-34E, yükseklik: 315 m

Güncel hava durumu gözlemi

Rapor saat 19:00 UTC de 26 dakika önce yapıldı.
Rüzgar değişken yönden 2 kt
Sıcaklık -1°C
Nem 93%
Basınç 1019 hPa
Görüş mesafesi 10 km veya daha fazla
1500 m altında bulut yok ve kümülonimbus yok

METAR: LRCL 241900Z VRB02KT CAVOK M01/M02 Q1019

Saat: 21:26 (19:26 UTC)

Tahmin

Rapor saat 17:00 UTC de 2 saat ve 26 dakika önce yapıldı.
Ayın 24'si saat 18 UTC'den ayın 25'si saat 03 UTC'ye kadar geçerli Tahmin
Rüzgar değişken yönden 4 kt
Görüş mesafesi 10 km veya daha fazla
4000 ft yükseklikte parçalı bulutlu

TAF: LRCL 241700Z 2418/2503 VRB04KT 9999 SCT040

4.000'den fazla havaalanı için hava durumu gözlemleri ve tahminleri (METAR ve TAF raporları).

Kullanılabilir istasyonlar harita üzerinde sarı ve kırmızı noktalarla gösterilir.

İstasyonun adını görmek için fareyi noktanın üzerinde gezdirin.

Sonrasında hava gözlem ve tahminlerini görmek için tıklayın.

Haritayı değiştirmek için: yaklaştırmak için siyah artı işaretli yeşil düğmeye ve uzaklaştırmak için de eksi işaretli düğmeye hızla tıklayın; bitişik haritalar için yeşil okları kullanın.


METAR-TAF: